createdAt,value
2022-09-24T00:01:23.607Z,6.13
2022-09-24T00:03:57.523Z,5.80
2022-09-24T00:06:24.180Z,5.65
2022-09-24T00:08:52.055Z,5.50
2022-09-24T00:11:21.536Z,5.60
2022-09-24T00:13:49.198Z,5.40
2022-09-24T00:16:16.222Z,6.03
2022-09-24T00:18:42.677Z,5.97
2022-09-24T00:21:11.999Z,6.00
2022-09-24T00:23:38.289Z,6.20
2022-09-24T00:26:23.328Z,6.10
2022-09-24T00:28:50.582Z,5.82
2022-09-24T00:31:17.071Z,5.90
2022-09-24T00:33:43.424Z,5.70
2022-09-24T00:36:09.913Z,5.57
2022-09-24T00:38:36.198Z,5.20
2022-09-24T00:41:03.251Z,4.55
2022-09-24T00:43:31.034Z,5.30
2022-09-24T00:46:03.619Z,4.28
2022-09-24T00:48:30.218Z,3.80
2022-09-24T00:50:56.665Z,4.20
2022-09-24T00:53:23.933Z,4.60
2022-09-24T00:55:54.121Z,4.97
2022-09-24T00:58:21.459Z,5.93
2022-09-24T01:00:48.230Z,5.97
2022-09-24T01:03:16.830Z,5.40
2022-09-24T01:05:43.134Z,6.03
2022-09-24T01:08:13.681Z,6.20
2022-09-24T01:10:49.306Z,5.72
2022-09-24T01:13:24.093Z,5.72
2022-09-24T01:15:59.408Z,5.80
2022-09-24T01:18:48.974Z,5.22
2022-09-24T01:21:35.310Z,5.78
2022-09-24T01:24:17.374Z,5.45
2022-09-24T01:26:59.033Z,5.82
2022-09-24T01:29:31.959Z,5.72
2022-09-24T01:32:05.657Z,6.28
2022-09-24T01:34:36.402Z,6.57
2022-09-24T01:37:03.565Z,6.18
2022-09-24T01:39:31.210Z,6.03
2022-09-24T01:41:57.993Z,6.07
2022-09-24T01:44:25.107Z,5.57
2022-09-24T01:46:51.850Z,5.82
2022-09-24T01:49:18.153Z,5.60
2022-09-24T01:51:49.549Z,5.78
2022-09-24T01:54:34.590Z,6.43
2022-09-24T01:57:09.773Z,6.00
2022-09-24T01:59:37.806Z,6.90
2022-09-24T02:02:06.624Z,6.03
2022-09-24T02:04:35.727Z,6.65
2022-09-24T02:07:04.260Z,6.43
2022-09-24T02:09:48.974Z,5.85
2022-09-24T02:12:17.140Z,5.90
2022-09-24T02:14:46.057Z,6.30
2022-09-24T02:17:13.970Z,6.10
2022-09-24T02:19:41.095Z,6.13
2022-09-24T02:22:09.925Z,6.18
2022-09-24T02:24:41.643Z,6.05
2022-09-24T02:27:08.391Z,6.07
2022-09-24T02:29:35.770Z,6.00
2022-09-24T02:32:03.121Z,6.45
2022-09-24T02:34:32.118Z,6.03
2022-09-24T02:36:59.649Z,6.18
2022-09-24T02:39:26.470Z,5.97
2022-09-24T02:41:53.650Z,6.03
2022-09-24T02:44:20.382Z,5.55
2022-09-24T02:46:47.238Z,6.03
2022-09-24T02:49:14.408Z,5.45
2022-09-24T02:51:41.269Z,5.50
2022-09-24T02:54:07.743Z,6.30
2022-09-24T02:56:34.032Z,6.05
2022-09-24T02:59:02.357Z,5.90
2022-09-24T03:01:29.244Z,5.43
2022-09-24T03:03:55.571Z,5.75
2022-09-24T03:06:21.900Z,5.63
2022-09-24T03:08:48.206Z,5.75
2022-09-24T03:11:18.477Z,5.80
2022-09-24T03:13:45.235Z,5.28
2022-09-24T03:16:11.554Z,5.93
2022-09-24T03:18:38.130Z,5.70
2022-09-24T03:21:05.879Z,5.57
2022-09-24T03:23:35.236Z,5.25
2022-09-24T03:26:01.778Z,5.63
2022-09-24T03:28:28.302Z,6.10
2022-09-24T03:31:00.678Z,5.38
2022-09-24T03:33:27.110Z,5.57
2022-09-24T03:36:00.919Z,5.70
2022-09-24T03:38:28.024Z,5.25
2022-09-24T03:40:54.519Z,5.70
2022-09-24T03:43:20.926Z,5.45
2022-09-24T03:45:47.188Z,5.80
2022-09-24T03:48:13.525Z,5.45
2022-09-24T03:50:39.881Z,5.75
2022-09-24T03:53:06.243Z,5.32
2022-09-24T03:55:32.541Z,5.30
2022-09-24T03:57:58.880Z,5.10
2022-09-24T04:00:25.213Z,5.18
2022-09-24T04:02:51.737Z,5.07
2022-09-24T04:05:18.209Z,5.45
2022-09-24T04:07:44.856Z,5.35
2022-09-24T04:10:11.681Z,5.00
2022-09-24T04:12:37.937Z,5.57
2022-09-24T04:15:04.685Z,5.60
2022-09-24T04:17:33.924Z,5.68
2022-09-24T04:20:01.623Z,6.30
2022-09-24T04:22:28.991Z,5.90
2022-09-24T04:24:58.491Z,6.00
2022-09-24T04:27:24.772Z,5.70
2022-09-24T04:29:51.049Z,5.90
2022-09-24T04:32:17.355Z,5.93
2022-09-24T04:34:43.625Z,6.00
2022-09-24T04:37:10.062Z,5.70
2022-09-24T04:39:36.342Z,5.25
2022-09-24T04:42:02.607Z,5.50
2022-09-24T04:44:30.121Z,5.38
2022-09-24T04:47:02.163Z,5.15
2022-09-24T04:49:29.493Z,4.88
2022-09-24T04:51:58.029Z,5.13
2022-09-24T04:54:25.377Z,5.15
2022-09-24T04:56:51.645Z,4.82
2022-09-24T04:59:18.005Z,5.03
2022-09-24T05:01:44.353Z,5.18
2022-09-24T05:04:10.722Z,5.10
2022-09-24T05:06:37.006Z,5.75
2022-09-24T05:09:03.277Z,5.35
2022-09-24T05:11:29.646Z,5.43
2022-09-24T05:13:56.200Z,5.43
2022-09-24T05:16:22.666Z,5.07
2022-09-24T05:18:49.042Z,5.07
2022-09-24T05:21:15.634Z,5.65
2022-09-24T05:23:42.246Z,5.68
2022-09-24T05:26:27.312Z,5.40
2022-09-24T05:28:53.606Z,5.65
2022-09-24T05:31:20.177Z,5.65
2022-09-24T05:33:46.558Z,5.45
2022-09-24T05:36:12.833Z,5.55
2022-09-24T05:38:41.713Z,5.53
2022-09-24T05:41:08.328Z,5.32
2022-09-24T05:43:34.597Z,5.82
2022-09-24T05:46:00.997Z,5.57
2022-09-24T05:48:27.354Z,5.68
2022-09-24T05:50:55.348Z,5.32
2022-09-24T05:53:23.070Z,5.43
2022-09-24T05:55:49.379Z,4.53
2022-09-24T05:58:15.629Z,5.10
2022-09-24T06:00:42.366Z,5.18
2022-09-24T06:03:13.643Z,6.85
2022-09-24T06:05:43.488Z,8.43
2022-09-24T06:08:09.768Z,8.95
2022-09-24T06:10:36.111Z,8.30
2022-09-24T06:13:02.437Z,7.65
2022-09-24T06:15:29.093Z,7.68
2022-09-24T06:17:55.683Z,7.18
2022-09-24T06:20:24.991Z,6.57
2022-09-24T06:22:54.250Z,6.22
2022-09-24T06:25:20.542Z,5.90
2022-09-24T06:27:52.818Z,6.60
2022-09-24T06:30:19.098Z,6.72
2022-09-24T06:32:45.369Z,12.82
2022-09-24T06:35:11.654Z,17.08
2022-09-24T06:37:37.916Z,12.25
2022-09-24T06:40:04.536Z,9.50
2022-09-24T06:42:30.928Z,9.05
2022-09-24T06:44:57.189Z,8.20
2022-09-24T06:47:24.093Z,8.05
2022-09-24T06:49:50.390Z,7.82
2022-09-24T06:52:16.758Z,6.82
2022-09-24T06:54:43.052Z,5.40
2022-09-24T06:57:09.325Z,4.60
2022-09-24T06:59:35.594Z,4.47
2022-09-24T07:02:02.303Z,4.50
2022-09-24T07:04:28.622Z,4.90
2022-09-24T07:07:13.738Z,6.50
2022-09-24T07:09:41.332Z,5.45
2022-09-24T07:12:08.723Z,5.13
2022-09-24T07:14:35.019Z,3.55
2022-09-24T07:17:01.445Z,4.05
2022-09-24T07:19:27.737Z,4.05
2022-09-24T07:21:54.031Z,4.80
2022-09-24T07:24:20.294Z,4.90
2022-09-24T07:26:46.556Z,5.10
2022-09-24T07:29:12.847Z,5.82
2022-09-24T07:31:39.212Z,6.40
2022-09-24T07:34:11.586Z,6.63
2022-09-24T07:36:37.901Z,6.85
2022-09-24T07:39:04.940Z,7.45
2022-09-24T07:41:31.287Z,8.25
2022-09-24T07:43:57.589Z,8.45
2022-09-24T07:46:24.627Z,8.18
2022-09-24T07:48:57.722Z,8.27
2022-09-24T07:51:27.353Z,8.00
2022-09-24T07:53:54.509Z,8.13
2022-09-24T07:56:21.082Z,7.60
2022-09-24T07:58:51.162Z,6.53
2022-09-24T08:01:17.792Z,7.03
2022-09-24T08:03:44.638Z,6.72
2022-09-24T08:06:11.150Z,7.00
2022-09-24T08:08:38.883Z,6.55
2022-09-24T08:11:05.921Z,6.90
2022-09-24T08:13:33.002Z,6.10
2022-09-24T08:15:59.733Z,6.68
2022-09-24T08:18:26.461Z,6.57
2022-09-24T08:20:52.878Z,6.63
2022-09-24T08:23:20.591Z,6.60
2022-09-24T08:25:47.485Z,7.00
2022-09-24T08:28:16.869Z,6.05
2022-09-24T08:30:44.013Z,6.47
2022-09-24T08:33:10.472Z,7.22
2022-09-24T08:35:39.878Z,8.18
2022-09-24T08:38:06.517Z,8.15
2022-09-24T08:40:56.178Z,7.00
2022-09-24T08:43:25.523Z,7.20
2022-09-24T08:46:15.447Z,6.50
2022-09-24T08:48:44.987Z,6.35
2022-09-24T08:51:18.400Z,6.20
2022-09-24T08:56:11.467Z,6.78
2022-09-24T08:58:50.922Z,6.20
2022-09-24T09:01:24.661Z,7.22
2022-09-24T09:03:56.647Z,6.38
2022-09-24T09:06:39.448Z,8.07
2022-09-24T09:09:14.233Z,6.90
2022-09-24T09:11:43.489Z,6.80
2022-09-24T09:14:30.532Z,7.50
2022-09-24T09:17:15.160Z,7.85
2022-09-24T09:19:42.703Z,6.95
2022-09-24T09:22:16.241Z,7.47
2022-09-24T09:27:14.661Z,8.70
2022-09-24T09:29:41.907Z,8.70
2022-09-24T09:32:13.547Z,9.13
2022-09-24T09:34:48.157Z,9.07
2022-09-24T09:37:25.001Z,8.00
2022-09-24T09:40:11.122Z,9.73
2022-09-24T09:42:40.247Z,9.82
2022-09-24T09:45:26.926Z,9.77
2022-09-24T09:47:55.309Z,9.70
2022-09-24T09:50:39.303Z,8.38
2022-09-24T09:53:05.597Z,9.40
2022-09-24T09:55:36.242Z,8.82
2022-09-24T09:58:14.695Z,8.75
2022-09-24T10:00:41.332Z,10.15
2022-09-24T10:03:26.452Z,10.65
2022-09-24T10:06:00.375Z,10.30
2022-09-24T10:08:27.038Z,9.60
2022-09-24T10:10:55.284Z,11.27
2022-09-24T10:13:23.007Z,10.98
2022-09-24T10:15:50.938Z,10.55
2022-09-24T10:18:17.618Z,10.25
2022-09-24T10:20:48.200Z,9.27
2022-09-24T10:23:19.610Z,9.80
2022-09-24T10:25:51.028Z,8.40
2022-09-24T10:28:38.167Z,8.80
2022-09-24T10:31:11.777Z,8.52
2022-09-24T10:33:39.588Z,7.95
2022-09-24T10:36:15.009Z,7.90
2022-09-24T10:38:41.515Z,8.98
2022-09-24T10:41:34.145Z,8.35
2022-09-24T10:44:03.117Z,8.52
2022-09-24T10:46:48.283Z,7.80
2022-09-24T10:49:27.285Z,7.28
2022-09-24T10:52:10.068Z,8.70
2022-09-24T10:54:36.336Z,8.60
2022-09-24T10:57:08.858Z,8.45
2022-09-24T10:59:39.124Z,9.18
2022-09-24T11:02:17.694Z,7.93
2022-09-24T11:04:51.683Z,8.93
2022-09-24T11:07:24.156Z,8.85
2022-09-24T11:09:50.454Z,7.70
2022-09-24T11:12:25.785Z,7.00
2022-09-24T11:15:04.860Z,6.45
2022-09-24T11:17:37.029Z,9.30
2022-09-24T11:20:06.656Z,9.10
2022-09-24T11:22:35.950Z,8.60
2022-09-24T11:25:17.564Z,8.25
2022-09-24T11:27:53.690Z,9.43
2022-09-24T11:30:21.513Z,10.48
2022-09-24T11:32:53.860Z,7.75
2022-09-24T11:35:28.797Z,7.93
2022-09-24T11:37:59.742Z,7.47
2022-09-24T11:40:29.781Z,7.85
2022-09-24T11:43:04.921Z,6.95
2022-09-24T11:45:43.525Z,7.68
2022-09-24T11:48:16.092Z,7.50
2022-09-24T11:50:55.081Z,6.68
2022-09-24T11:53:31.036Z,6.30
2022-09-24T11:56:09.476Z,6.18
2022-09-24T11:58:43.777Z,6.28
2022-09-24T12:01:15.729Z,6.07
2022-09-24T12:03:44.229Z,6.30
2022-09-24T12:06:12.881Z,6.10
2022-09-24T12:08:42.034Z,6.85
2022-09-24T12:11:33.115Z,6.90
2022-09-24T12:14:03.200Z,6.82
2022-09-24T12:16:33.289Z,6.97
2022-09-24T12:19:28.724Z,6.40
2022-09-24T12:21:55.927Z,7.55
2022-09-24T12:24:36.004Z,6.95
2022-09-24T12:27:07.100Z,6.25
2022-09-24T12:30:11.120Z,6.18
2022-09-24T12:32:56.813Z,5.70
2022-09-24T12:35:39.611Z,4.90
2022-09-24T12:38:28.883Z,4.50
2022-09-24T12:40:58.230Z,4.70
2022-09-24T12:43:29.094Z,4.80
2022-09-24T12:45:58.704Z,4.25
2022-09-24T12:48:25.637Z,4.80
2022-09-24T12:50:59.691Z,4.93
2022-09-24T12:55:58.930Z,6.55
2022-09-24T12:58:28.215Z,4.80
2022-09-24T13:01:05.370Z,4.70
2022-09-24T13:03:36.441Z,4.65
2022-09-24T13:06:03.457Z,4.50
2022-09-24T13:08:36.880Z,4.20
2022-09-24T13:11:05.939Z,5.10
2022-09-24T13:13:36.687Z,6.60
2022-09-24T13:16:06.037Z,6.07
2022-09-24T13:18:34.327Z,7.10
2022-09-24T13:21:08.104Z,7.03
2022-09-24T13:23:37.673Z,6.45
2022-09-24T13:26:09.058Z,6.43
2022-09-24T13:28:51.257Z,6.10
2022-09-24T13:31:22.447Z,5.93
2022-09-24T13:33:54.801Z,5.93
2022-09-24T13:36:36.603Z,4.82
2022-09-24T13:39:12.270Z,5.47
2022-09-24T13:41:59.424Z,5.72
2022-09-24T13:44:39.321Z,4.28
2022-09-24T13:47:11.985Z,5.10
2022-09-24T13:49:41.469Z,4.88
2022-09-24T13:52:25.155Z,4.85
2022-09-24T13:54:53.443Z,5.35
2022-09-24T13:57:21.755Z,4.47
2022-09-24T13:59:48.040Z,4.75
2022-09-24T14:02:40.955Z,5.43
2022-09-24T14:05:09.067Z,5.32
2022-09-24T14:07:36.367Z,5.53
2022-09-24T14:10:04.685Z,5.72
2022-09-24T14:12:31.130Z,5.00
2022-09-24T14:14:58.196Z,5.47
2022-09-24T14:17:24.761Z,5.22
2022-09-24T14:19:55.324Z,4.82
2022-09-24T14:22:31.598Z,5.40
2022-09-24T14:25:07.725Z,4.70
2022-09-24T14:27:36.249Z,4.75
2022-09-24T14:30:04.543Z,4.85
2022-09-24T14:32:35.213Z,4.68
2022-09-24T14:35:24.641Z,4.07
2022-09-24T14:37:57.370Z,4.28
2022-09-24T14:40:24.034Z,4.90
2022-09-24T14:42:55.184Z,4.35
2022-09-24T14:45:23.777Z,3.72
2022-09-24T14:48:26.046Z,4.13
2022-09-24T14:50:52.285Z,3.97
2022-09-24T14:53:23.684Z,3.97
2022-09-24T14:55:50.052Z,3.53
2022-09-24T14:58:28.576Z,4.20
2022-09-24T15:00:57.354Z,3.50
2022-09-24T15:03:32.278Z,4.40
2022-09-24T15:06:02.912Z,3.90
2022-09-24T15:08:29.279Z,4.28
2022-09-24T15:11:00.431Z,4.30
2022-09-24T15:13:30.984Z,4.20
2022-09-24T15:16:21.187Z,4.50
2022-09-24T15:18:55.238Z,4.40
2022-09-24T15:21:21.760Z,4.20
2022-09-24T15:23:48.089Z,4.55
2022-09-24T15:26:14.524Z,4.18
2022-09-24T15:28:40.828Z,4.05
2022-09-24T15:31:07.168Z,4.53
2022-09-24T15:33:33.489Z,4.30
2022-09-24T15:35:59.822Z,4.68
2022-09-24T15:38:26.060Z,4.90
2022-09-24T15:40:53.755Z,4.72
2022-09-24T15:43:22.065Z,4.32
2022-09-24T15:45:48.861Z,5.13
2022-09-24T15:48:15.113Z,5.35
2022-09-24T15:50:41.978Z,6.40
2022-09-24T15:53:12.094Z,6.40
2022-09-24T15:55:38.412Z,6.47
2022-09-24T15:58:09.946Z,5.97
2022-09-24T16:00:36.276Z,5.75
2022-09-24T16:03:02.891Z,6.30
2022-09-24T16:05:29.566Z,6.80
2022-09-24T16:07:56.078Z,7.32
2022-09-24T16:10:22.350Z,7.40
2022-09-24T16:12:48.628Z,7.57
2022-09-24T16:15:15.790Z,7.53
2022-09-24T16:17:42.553Z,7.10
2022-09-24T16:20:09.930Z,6.53
2022-09-24T16:22:36.214Z,6.90
2022-09-24T16:25:02.645Z,7.68
2022-09-24T16:27:29.683Z,6.88
2022-09-24T16:29:55.988Z,7.15
2022-09-24T16:32:22.257Z,6.68
2022-09-24T16:34:48.523Z,6.40
2022-09-24T16:37:16.618Z,6.05
2022-09-24T16:39:42.927Z,5.40
2022-09-24T16:42:09.221Z,5.40
2022-09-24T16:44:35.527Z,4.80
2022-09-24T16:47:01.951Z,3.90
2022-09-24T16:49:29.427Z,4.30
2022-09-24T16:51:55.884Z,4.50
2022-09-24T16:54:22.901Z,4.40
2022-09-24T16:56:50.329Z,4.70
2022-09-24T16:59:16.725Z,4.38
2022-09-24T17:01:43.198Z,5.10
2022-09-24T17:04:09.568Z,4.85
2022-09-24T17:06:36.583Z,4.70
2022-09-24T17:09:21.501Z,4.38
2022-09-24T17:11:49.344Z,5.10
2022-09-24T17:14:16.431Z,4.90
2022-09-24T17:16:43.137Z,5.05
2022-09-24T17:19:10.273Z,4.72
2022-09-24T17:21:37.380Z,7.00
2022-09-24T17:24:03.821Z,7.20
2022-09-24T17:26:30.086Z,6.72
2022-09-24T17:28:56.374Z,6.30
2022-09-24T17:31:23.974Z,5.70
2022-09-24T17:34:00.583Z,5.75
2022-09-24T17:36:28.016Z,6.30
2022-09-24T17:38:56.135Z,6.70
2022-09-24T17:41:23.680Z,6.50
2022-09-24T17:43:50.029Z,6.50
2022-09-24T17:46:17.938Z,6.63
2022-09-24T17:48:45.678Z,7.18
2022-09-24T17:51:16.712Z,7.68
2022-09-24T17:53:43.104Z,8.57
2022-09-24T17:56:10.505Z,10.20
2022-09-24T17:58:37.945Z,9.50
2022-09-24T18:01:06.011Z,9.98
2022-09-24T18:03:32.398Z,8.45
2022-09-24T18:05:59.698Z,7.78
2022-09-24T18:08:26.014Z,6.30
2022-09-24T18:11:02.233Z,4.90
2022-09-24T18:13:28.543Z,5.40
2022-09-24T18:15:54.951Z,6.13
2022-09-24T18:18:21.345Z,6.57
2022-09-24T18:20:47.634Z,6.45
2022-09-24T18:23:13.904Z,6.00
2022-09-24T18:25:40.525Z,4.80
2022-09-24T18:28:06.807Z,4.65
2022-09-24T18:30:33.066Z,5.35
2022-09-24T18:32:59.330Z,4.80
2022-09-24T18:35:25.641Z,4.15
2022-09-24T18:37:51.908Z,5.25
2022-09-24T18:40:18.313Z,5.70
2022-09-24T18:42:44.675Z,5.70
2022-09-24T18:45:11.250Z,7.25
2022-09-24T18:47:40.479Z,7.45
2022-09-24T18:50:07.202Z,6.97
2022-09-24T18:52:33.768Z,6.68
2022-09-24T18:55:00.205Z,6.45
2022-09-24T18:57:26.474Z,6.28
2022-09-24T18:59:52.742Z,7.00
2022-09-24T19:02:20.245Z,7.35
2022-09-24T19:04:46.818Z,7.47
2022-09-24T19:07:13.173Z,7.10
2022-09-24T19:09:39.476Z,8.85
2022-09-24T19:12:07.819Z,9.55
2022-09-24T19:14:34.232Z,9.32
2022-09-24T19:17:02.863Z,9.48
2022-09-24T19:19:29.137Z,8.02
2022-09-24T19:21:56.589Z,6.93
2022-09-24T19:24:22.974Z,6.18
2022-09-24T19:26:49.813Z,6.25
2022-09-24T19:29:16.093Z,6.28
2022-09-24T19:31:45.009Z,7.35
2022-09-24T19:34:12.389Z,8.60
2022-09-24T19:36:43.842Z,7.63
2022-09-24T19:39:11.944Z,6.35
2022-09-24T19:41:38.329Z,4.50
2022-09-24T19:44:08.835Z,4.40
2022-09-24T19:46:36.725Z,4.18
2022-09-24T19:49:03.042Z,4.47
2022-09-24T19:51:30.800Z,4.45
2022-09-24T19:53:58.443Z,4.95
2022-09-24T19:56:25.374Z,4.40
2022-09-24T19:58:56.009Z,5.30
2022-09-24T20:01:23.795Z,5.40
2022-09-24T20:03:50.361Z,5.13
2022-09-24T20:06:18.194Z,4.70
2022-09-24T20:08:44.870Z,5.25
2022-09-24T20:11:14.882Z,5.32
2022-09-24T20:13:47.259Z,5.78
2022-09-24T20:16:20.984Z,5.75
2022-09-24T20:18:47.707Z,6.88
2022-09-24T20:21:17.639Z,6.95
2022-09-24T20:23:44.588Z,6.30
2022-09-24T20:26:30.612Z,5.53
2022-09-24T20:28:57.406Z,5.53
2022-09-24T20:31:24.003Z,4.88
2022-09-24T20:33:50.505Z,4.72
2022-09-24T20:36:20.740Z,4.35
2022-09-24T20:38:49.705Z,4.65
2022-09-24T20:41:20.093Z,4.63
2022-09-24T20:43:46.585Z,4.32
2022-09-24T20:46:16.151Z,4.10
2022-09-24T20:48:42.510Z,4.53
2022-09-24T20:51:13.235Z,4.20
2022-09-24T20:53:39.934Z,4.00
2022-09-24T20:56:06.320Z,3.70
2022-09-24T20:58:33.751Z,3.05
2022-09-24T21:01:00.624Z,3.10
2022-09-24T21:03:43.409Z,3.03
2022-09-24T21:06:15.261Z,3.30
2022-09-24T21:08:42.798Z,3.53
2022-09-24T21:11:13.596Z,3.25
2022-09-24T21:13:40.902Z,3.58
2022-09-24T21:16:07.665Z,3.00
2022-09-24T21:18:40.094Z,3.15
2022-09-24T21:21:08.352Z,3.20
2022-09-24T21:23:36.086Z,3.13
2022-09-24T21:26:15.993Z,3.33
2022-09-24T21:28:46.534Z,3.30
2022-09-24T21:31:13.817Z,3.22
2022-09-24T21:33:44.581Z,3.50
2022-09-24T21:36:11.817Z,3.22
2022-09-24T21:38:38.330Z,3.78
2022-09-24T21:41:08.238Z,3.63
2022-09-24T21:43:35.215Z,4.47
2022-09-24T21:46:06.377Z,5.25
2022-09-24T21:48:33.428Z,3.10
2022-09-24T21:51:04.327Z,2.67
2022-09-24T21:53:30.912Z,2.20
2022-09-24T21:55:57.258Z,2.50
2022-09-24T21:58:23.573Z,2.58
2022-09-24T22:00:49.889Z,2.50
2022-09-24T22:03:16.758Z,2.40
2022-09-24T22:05:43.693Z,2.55
2022-09-24T22:08:11.675Z,2.60
2022-09-24T22:10:38.854Z,2.60
2022-09-24T22:13:05.465Z,2.42
2022-09-24T22:15:32.178Z,2.80
2022-09-24T22:17:59.027Z,2.70
2022-09-24T22:20:25.341Z,3.25
2022-09-24T22:22:51.608Z,4.18
2022-09-24T22:25:17.913Z,4.32
2022-09-24T22:27:44.206Z,5.38
2022-09-24T22:30:11.417Z,5.88
2022-09-24T22:32:37.809Z,6.50
2022-09-24T22:35:23.554Z,6.82
2022-09-24T22:37:51.037Z,6.85
2022-09-24T22:40:17.558Z,6.78
2022-09-24T22:42:43.854Z,6.47
2022-09-24T22:45:10.988Z,6.03
2022-09-24T22:47:37.279Z,5.22
2022-09-24T22:50:03.598Z,4.80
2022-09-24T22:52:29.942Z,4.43
2022-09-24T22:54:56.220Z,4.10
2022-09-24T22:57:22.503Z,4.45
2022-09-24T22:59:49.352Z,3.78
2022-09-24T23:02:15.611Z,3.85
2022-09-24T23:04:42.010Z,3.25
2022-09-24T23:07:08.362Z,3.50
2022-09-24T23:09:34.641Z,3.97
2022-09-24T23:12:01.009Z,3.45
2022-09-24T23:14:27.282Z,3.30
2022-09-24T23:16:53.945Z,3.50
2022-09-24T23:19:20.269Z,3.30
2022-09-24T23:21:47.157Z,4.70
2022-09-24T23:24:15.246Z,5.00
2022-09-24T23:26:41.653Z,4.53
2022-09-24T23:29:08.749Z,3.78
2022-09-24T23:31:36.878Z,3.70
2022-09-24T23:34:03.854Z,3.97
2022-09-24T23:36:31.273Z,4.40
2022-09-24T23:38:58.389Z,4.43
2022-09-24T23:41:24.799Z,4.88
2022-09-24T23:43:51.086Z,4.38
2022-09-24T23:46:17.480Z,4.72
2022-09-24T23:48:43.988Z,4.40
2022-09-24T23:51:10.485Z,4.38
2022-09-24T23:53:37.401Z,4.30
2022-09-24T23:56:04.798Z,4.90
2022-09-24T23:58:31.132Z,4.70
